Phoenix, Arizona
Traffic Map
Current Weather Conditions
Phoenix, Arizona
Clear
Clear
11°
Feels Like: 11°
Wind Chill: 11° Ceiling: Unl
Heat Index: 11° Visibility: 10mi
Dew Point: -4° Wind: 0mph
Humidity: 35% Direction: ° ()
Pressure: 30.07in Gusts: 0mph
Raw Report DataKPHX 041551Z 00000KT 10SM CLR 11/M04 A3007 RMK AO2 SLP176 T01111039
Traffic Incident Summary
Active as of:
Severity:
Category:
InformationThere was an issue retrieving the traffic information for this location. Please try a different location or try again shortly.
Advertisements
Track Severe Weather on mobile